This is the latest recevied weather packets stored in our database for station/object YC0TBU-4. If no packets are shown the sender has not sent any weather packets the latest 10 day(s).
| Time | Temp. | Humidity | Pressure | Rain* | Wind** | Luminosity | Snow |
|---|---|---|---|---|---|---|---|
| 1787782851 | 27.22° C | 44% | 1016.3 hPa | - | - | - | - |
| 1787781051 | 27.22° C | 44% | 1016.1 hPa | - | - | - | - |
| 1787779251 | 27.22° C | 44% | 1016 hPa | - | - | - | - |
| 1787777451 | 27.22° C | 44% | 1015.8 hPa | - | - | - | - |
| 1787775651 | 27.22° C | 44% | 1016 hPa | - | - | - | - |
| 1787773851 | 27.22° C | 44% | 1015.9 hPa | - | - | - | - |
| 1787772051 | 27.78° C | 44% | 1016 hPa | - | - | - | - |
| 1787770235 | 27.78° C | 43% | 1015.9 hPa | - | - | - | - |
| 1787768418 | 28.33° C | 43% | 1016.2 hPa | - | - | - | - |
| 1787766586 | 27.78° C | 43% | 1016.4 hPa | - | - | - | - |
| 1787764786 | 28.33° C | 42% | 1016.7 hPa | - | - | - | - |
| 1787762986 | 27.78° C | 43% | 1017.1 hPa | - | - | - | - |
| 1787761186 | 27.22° C | 45% | 1017.3 hPa | - | - | - | - |
| 1787759386 | 24.44° C | 50% | 1017.2 hPa | - | - | - | - |
| 1787757586 | 25° C | 49% | 1017 hPa | - | - | - | - |
| 1787755786 | 24.44° C | 50% | 1016.8 hPa | - | - | - | - |
| 1787753986 | 25° C | 50% | 1016.7 hPa | - | - | - | - |
| 1787752186 | 25° C | 50% | 1016.2 hPa | - | - | - | - |
| 1787750387 | 25.56° C | 47% | 1015.9 hPa | - | - | - | - |
| 1787748586 | 25° C | 48% | 1015.6 hPa | - | - | - | - |
| 1787746786 | 25° C | 48% | 1015.2 hPa | - | - | - | - |
| 1787744986 | 25.56° C | 47% | 1014.8 hPa | - | - | - | - |
| 1787743186 | 25.56° C | 47% | 1014.3 hPa | - | - | - | - |
| 1787741386 | 25.56° C | 46% | 1014 hPa | - | - | - | - |
| 1787739586 | 25.56° C | 44% | 1013.4 hPa | - | - | - | - |
* Rain since midnight (hover to see other rain measurements)
** Current wind speed in m/s (hover to see current wind gust speed)